CPA875 KDFW-VHHH
Flight info
| Callsign | CPA875 |
|---|---|
| Flight time | N/A |
| Altitude | 40000 |
| Route | HUDAD2 HUDAD DCT CDS DCT BGD DCT TBE DCT KD45W DCT KD54U DCT KU66Q DCT KS06G DCT SEFIX DCT ORNAI DCT 51N140W 53N150W 55N160W DCT ALUFF DCT EDWAL DCT NIKLL R220 IXE Y88 NAKTU Y12 KOHWA Y54 TURFY Y24 KOSHI Y50 IGMON A1 APU DCT MKG A1 ELATO V522 ABBEY |
| Aircraft | A35K/H-SDE2E3GHIJ3J4J5LM1ORWXY/LB1D1 |
Departure
| Time | 2026-04-30 11:07 |
|---|---|
| Airport | Dallas Fort Worth International Airport (KDFW) |
Arrival
| Time | N/A |
|---|---|
| Airport | Hong Kong International Airport (VHHH) |
| Time | Latitude | Longitude | Altitude | Speed | Heading |
|---|---|---|---|---|---|
| 2026-04-30 10:40 | 32.89493 | -97.04453 | 613 ft | 0 kts | 359° |
| 2026-04-30 10:53 | 32.89478 | -97.04452 | 621 ft | 2 kts | 359° |
| 2026-04-30 10:53 | 32.89463 | -97.04452 | 615 ft | 2 kts | 359° |
| 2026-04-30 10:53 | 32.89447 | -97.04452 | 615 ft | 2 kts | 355° |
| 2026-04-30 10:54 | 32.89433 | -97.04446 | 621 ft | 2 kts | 291° |
| 2026-04-30 10:54 | 32.89431 | -97.04429 | 621 ft | 2 kts | 270° |
| 2026-04-30 10:54 | 32.89433 | -97.04370 | 621 ft | 8 kts | 265° |
| 2026-04-30 10:54 | 32.89435 | -97.04343 | 621 ft | 6 kts | 263° |
| 2026-04-30 10:55 | 32.89436 | -97.04330 | 621 ft | 0 kts | 263° |
| 2026-04-30 10:55 | 32.89436 | -97.04331 | 621 ft | 0 kts | 263° |
| 2026-04-30 10:55 | 32.89436 | -97.04334 | 621 ft | 1 kts | 263° |
| 2026-04-30 10:56 | 32.89436 | -97.04335 | 621 ft | 1 kts | 263° |
| 2026-04-30 10:56 | 32.89435 | -97.04345 | 621 ft | 2 kts | 264° |
| 2026-04-30 10:56 | 32.89434 | -97.04355 | 621 ft | 0 kts | 265° |
| 2026-04-30 10:57 | 32.89434 | -97.04361 | 618 ft | 3 kts | 265° |
| 2026-04-30 10:57 | 32.89430 | -97.04426 | 616 ft | 9 kts | 265° |
| 2026-04-30 10:58 | 32.89428 | -97.04501 | 616 ft | 10 kts | 269° |
| 2026-04-30 10:58 | 32.89428 | -97.04584 | 616 ft | 11 kts | 270° |
| 2026-04-30 10:58 | 32.89428 | -97.04677 | 616 ft | 12 kts | 270° |
| 2026-04-30 10:58 | 32.89419 | -97.04740 | 612 ft | 7 kts | 241° |
| 2026-04-30 10:59 | 32.89376 | -97.04764 | 621 ft | 7 kts | 189° |
| 2026-04-30 10:59 | 32.89326 | -97.04768 | 621 ft | 8 kts | 179° |
| 2026-04-30 10:59 | 32.89266 | -97.04768 | 613 ft | 9 kts | 179° |
| 2026-04-30 10:59 | 32.89187 | -97.04768 | 611 ft | 12 kts | 180° |
| 2026-04-30 11:00 | 32.89100 | -97.04768 | 617 ft | 13 kts | 180° |
| 2026-04-30 11:00 | 32.89008 | -97.04769 | 612 ft | 14 kts | 181° |
| 2026-04-30 11:00 | 32.88909 | -97.04770 | 621 ft | 15 kts | 181° |
| 2026-04-30 11:00 | 32.88804 | -97.04772 | 612 ft | 16 kts | 181° |
| 2026-04-30 11:01 | 32.88698 | -97.04772 | 617 ft | 13 kts | 180° |
| 2026-04-30 11:01 | 32.88602 | -97.04773 | 617 ft | 14 kts | 180° |
| 2026-04-30 11:01 | 32.88509 | -97.04789 | 621 ft | 10 kts | 197° |
| 2026-04-30 11:01 | 32.88434 | -97.04807 | 611 ft | 11 kts | 183° |
| 2026-04-30 11:02 | 32.88352 | -97.04809 | 612 ft | 12 kts | 181° |
| 2026-04-30 11:02 | 32.88263 | -97.04811 | 616 ft | 13 kts | 180° |
| 2026-04-30 11:02 | 32.88203 | -97.04810 | 611 ft | 9 kts | 179° |
| 2026-04-30 11:02 | 32.88135 | -97.04809 | 612 ft | 10 kts | 179° |
| 2026-04-30 11:03 | 32.88060 | -97.04808 | 618 ft | 11 kts | 179° |
| 2026-04-30 11:03 | 32.87996 | -97.04845 | 618 ft | 8 kts | 242° |
| 2026-04-30 11:03 | 32.87985 | -97.04910 | 621 ft | 9 kts | 263° |
| 2026-04-30 11:04 | 32.87995 | -97.05063 | 621 ft | 9 kts | 306° |
| 2026-04-30 11:04 | 32.88055 | -97.05090 | 615 ft | 9 kts | 352° |
| 2026-04-30 11:04 | 32.88078 | -97.05091 | 612 ft | 0 kts | 360° |
| 2026-04-30 11:06 | 32.88079 | -97.05091 | 612 ft | 0 kts | 360° |
| 2026-04-30 11:06 | 32.88133 | -97.05091 | 612 ft | 33 kts | 360° |
| 2026-04-30 11:06 | 32.88917 | -97.05092 | 617 ft | 133 kts | 1° |
| 2026-04-30 11:07 | 32.90069 | -97.05080 | 619 ft | 196 kts | 0° |
| 2026-04-30 11:07 | 32.91057 | -97.05061 | 781 ft | 223 kts | 1° |
| 2026-04-30 11:07 | 32.93140 | -97.05085 | 1798 ft | 245 kts | 360° |
| 2026-04-30 11:07 | 32.94300 | -97.05228 | 2409 ft | 262 kts | 355° |
| 2026-04-30 11:08 | 32.96123 | -97.05855 | 3441 ft | 275 kts | 344° |
| 2026-04-30 11:08 | 32.98443 | -97.06952 | 5347 ft | 258 kts | 341° |
| 2026-04-30 11:08 | 32.99505 | -97.07575 | 6280 ft | 256 kts | 329° |
| 2026-04-30 11:08 | 33.00708 | -97.09112 | 7254 ft | 261 kts | 297° |